This is the latest recevied weather packets stored in our database for station/object WV5G-13. If no packets are shown the sender has not sent any weather packets the latest 10 day(s).
| Time | Temp. | Humidity | Pressure | Rain* | Wind** | Luminosity | Snow |
|---|---|---|---|---|---|---|---|
| 1778008889 | 15.56° C | 44% | 1008.6 hPa | 0 mm | - | 517 W/m² | - |
| 1778008588 | 15.56° C | 43% | 1008.5 hPa | 0 mm | - | 684 W/m² | - |
| 1778008286 | 15.56° C | 44% | 1008.5 hPa | 0 mm | - | 828 W/m² | - |
| 1778007981 | 15.56° C | 43% | 1008.8 hPa | 0 mm | - | 903 W/m² | - |
| 1778007676 | 15.56° C | 43% | 1008.6 hPa | 0 mm | - | 814 W/m² | - |
| 1778007373 | 15° C | 45% | 1008.9 hPa | 0 mm | - | 505 W/m² | - |
| 1778007069 | 15° C | 44% | 1008.8 hPa | 0 mm | - | 510 W/m² | - |
| 1778006766 | 14.44° C | 45% | 1008.9 hPa | 0 mm | - | 499 W/m² | - |
| 1778006463 | 15° C | 44% | 1008.7 hPa | 0 mm | - | 480 W/m² | - |
| 1778006160 | 15° C | 44% | 1008.8 hPa | 0 mm | - | 519 W/m² | - |
| 1778005857 | 15° C | 45% | 1008.5 hPa | 0 mm | - | 563 W/m² | - |
| 1778005553 | 15° C | 44% | 1008.6 hPa | 0 mm | - | 581 W/m² | - |
| 1778005250 | 15° C | 44% | 1008.7 hPa | 0 mm | - | 484 W/m² | - |
| 1778004947 | 15° C | 44% | 1008.8 hPa | 0 mm | - | 527 W/m² | - |
| 1778004644 | 14.44° C | 46% | 1008.9 hPa | 0 mm | - | 581 W/m² | - |
| 1778004340 | 15° C | 47% | 1008.9 hPa | 0 mm | - | 594 W/m² | - |
| 1778004038 | 15° C | 44% | 1008.7 hPa | 0 mm | - | 543 W/m² | - |
| 1778003738 | 14.44° C | 45% | 1009 hPa | 0 mm | - | 514 W/m² | - |
| 1778003435 | 15° C | 45% | 1008.9 hPa | 0 mm | - | 500 W/m² | - |
| 1778003132 | 15.56° C | 43% | 1008.8 hPa | 0 mm | - | 650 W/m² | - |
| 1778002828 | 14.44° C | 45% | 1009 hPa | 0 mm | - | 775 W/m² | - |
| 1778002525 | 14.44° C | 46% | 1008.9 hPa | 0 mm | - | 649 W/m² | - |
| 1778002222 | 13.89° C | 47% | 1008.9 hPa | 0 mm | - | 366 W/m² | - |
| 1778001920 | 14.44° C | 46% | 1008.9 hPa | 0 mm | - | 382 W/m² | - |
| 1778001615 | 15° C | 45% | 1008.7 hPa | 0 mm | - | 597 W/m² | - |
* Rain latest hour (hover to see other rain measurements)
** Current wind speed in m/s (hover to see current wind gust speed)